sensor_id;sensor_type;location;lat;lon;timestamp;P1;durP1;ratioP1;P2;durP2;ratioP2
8825;SDS011;4449;50.872;4.714;2022-08-21T00:00:14;4.10;;;2.83;;
8825;SDS011;4449;50.872;4.714;2022-08-21T00:02:44;4.32;;;3.38;;
8825;SDS011;4449;50.872;4.714;2022-08-21T00:05:13;3.78;;;3.20;;
8825;SDS011;4449;50.872;4.714;2022-08-21T00:07:40;4.70;;;3.15;;
8825;SDS011;4449;50.872;4.714;2022-08-21T00:10:09;5.23;;;3.30;;
8825;SDS011;4449;50.872;4.714;2022-08-21T00:12:38;3.30;;;3.00;;
8825;SDS011;4449;50.872;4.714;2022-08-21T00:15:08;3.35;;;3.05;;
8825;SDS011;4449;50.872;4.714;2022-08-21T00:17:36;3.22;;;2.92;;
8825;SDS011;4449;50.872;4.714;2022-08-21T00:20:05;3.67;;;3.13;;
8825;SDS011;4449;50.872;4.714;2022-08-21T00:22:34;3.80;;;2.90;;
8825;SDS011;4449;50.872;4.714;2022-08-21T00:25:02;3.92;;;2.92;;
8825;SDS011;4449;50.872;4.714;2022-08-21T00:27:32;7.78;;;3.13;;
8825;SDS011;4449;50.872;4.714;2022-08-21T00:30:01;3.65;;;2.90;;
8825;SDS011;4449;50.872;4.714;2022-08-21T00:32:28;4.03;;;3.08;;
8825;SDS011;4449;50.872;4.714;2022-08-21T00:34:56;4.27;;;3.00;;
8825;SDS011;4449;50.872;4.714;2022-08-21T00:37:24;3.78;;;3.40;;
8825;SDS011;4449;50.872;4.714;2022-08-21T00:39:52;4.40;;;2.90;;
8825;SDS011;4449;50.872;4.714;2022-08-21T00:42:20;3.85;;;3.03;;
8825;SDS011;4449;50.872;4.714;2022-08-21T00:44:49;3.60;;;3.03;;
8825;SDS011;4449;50.872;4.714;2022-08-21T00:47:17;4.43;;;2.97;;
8825;SDS011;4449;50.872;4.714;2022-08-21T00:49:45;2.65;;;2.45;;
8825;SDS011;4449;50.872;4.714;2022-08-21T00:52:14;4.77;;;2.70;;
8825;SDS011;4449;50.872;4.714;2022-08-21T00:54:42;5.93;;;2.70;;
8825;SDS011;4449;50.872;4.714;2022-08-21T00:57:12;3.17;;;2.88;;
8825;SDS011;4449;50.872;4.714;2022-08-21T00:59:41;3.95;;;3.03;;
8825;SDS011;4449;50.872;4.714;2022-08-21T01:02:12;4.47;;;3.58;;
8825;SDS011;4449;50.872;4.714;2022-08-21T01:04:40;3.33;;;2.83;;
8825;SDS011;4449;50.872;4.714;2022-08-21T01:07:08;3.97;;;2.92;;
8825;SDS011;4449;50.872;4.714;2022-08-21T01:09:36;5.32;;;3.55;;
8825;SDS011;4449;50.872;4.714;2022-08-21T01:12:04;3.88;;;3.00;;
8825;SDS011;4449;50.872;4.714;2022-08-21T01:14:32;3.83;;;2.50;;
8825;SDS011;4449;50.872;4.714;2022-08-21T01:17:00;3.50;;;2.67;;
8825;SDS011;4449;50.872;4.714;2022-08-21T01:19:31;4.88;;;2.65;;
8825;SDS011;4449;50.872;4.714;2022-08-21T01:22:01;3.63;;;2.65;;
8825;SDS011;4449;50.872;4.714;2022-08-21T01:24:29;3.35;;;2.65;;
8825;SDS011;4449;50.872;4.714;2022-08-21T01:26:57;3.45;;;3.15;;
8825;SDS011;4449;50.872;4.714;2022-08-21T01:29:26;4.13;;;2.80;;
8825;SDS011;4449;50.872;4.714;2022-08-21T01:31:57;3.47;;;2.80;;
8825;SDS011;4449;50.872;4.714;2022-08-21T01:34:25;5.00;;;3.30;;
8825;SDS011;4449;50.872;4.714;2022-08-21T01:36:52;3.70;;;2.50;;
8825;SDS011;4449;50.872;4.714;2022-08-21T01:39:21;5.93;;;2.88;;
8825;SDS011;4449;50.872;4.714;2022-08-21T01:41:49;5.72;;;2.65;;
8825;SDS011;4449;50.872;4.714;2022-08-21T01:44:19;2.83;;;2.55;;
8825;SDS011;4449;50.872;4.714;2022-08-21T01:46:47;3.65;;;2.80;;
8825;SDS011;4449;50.872;4.714;2022-08-21T01:49:15;4.17;;;3.00;;
8825;SDS011;4449;50.872;4.714;2022-08-21T01:51:43;5.78;;;2.95;;
8825;SDS011;4449;50.872;4.714;2022-08-21T01:54:11;4.10;;;2.60;;
8825;SDS011;4449;50.872;4.714;2022-08-21T01:56:44;3.15;;;2.45;;
8825;SDS011;4449;50.872;4.714;2022-08-21T01:59:12;3.17;;;2.55;;
8825;SDS011;4449;50.872;4.714;2022-08-21T02:01:40;4.85;;;3.10;;
8825;SDS011;4449;50.872;4.714;2022-08-21T02:04:09;5.00;;;3.08;;
8825;SDS011;4449;50.872;4.714;2022-08-21T02:06:37;3.13;;;2.92;;
8825;SDS011;4449;50.872;4.714;2022-08-21T02:09:05;3.28;;;3.00;;
8825;SDS011;4449;50.872;4.714;2022-08-21T02:11:36;3.35;;;2.72;;
8825;SDS011;4449;50.872;4.714;2022-08-21T02:14:07;3.40;;;2.80;;
8825;SDS011;4449;50.872;4.714;2022-08-21T02:16:35;3.77;;;2.57;;
8825;SDS011;4449;50.872;4.714;2022-08-21T02:19:03;7.60;;;2.83;;
8825;SDS011;4449;50.872;4.714;2022-08-21T02:21:30;4.82;;;2.85;;
8825;SDS011;4449;50.872;4.714;2022-08-21T02:23:58;3.67;;;2.50;;
8825;SDS011;4449;50.872;4.714;2022-08-21T02:26:26;2.67;;;2.47;;
8825;SDS011;4449;50.872;4.714;2022-08-21T02:28:54;4.82;;;3.00;;
8825;SDS011;4449;50.872;4.714;2022-08-21T02:31:23;3.63;;;2.70;;
8825;SDS011;4449;50.872;4.714;2022-08-21T02:33:51;3.20;;;2.90;;
8825;SDS011;4449;50.872;4.714;2022-08-21T02:36:19;5.35;;;2.90;;
8825;SDS011;4449;50.872;4.714;2022-08-21T02:38:47;3.10;;;2.60;;
8825;SDS011;4449;50.872;4.714;2022-08-21T02:41:16;5.47;;;2.70;;
8825;SDS011;4449;50.872;4.714;2022-08-21T02:43:44;5.47;;;2.65;;
8825;SDS011;4449;50.872;4.714;2022-08-21T02:46:13;3.80;;;2.80;;
8825;SDS011;4449;50.872;4.714;2022-08-21T02:48:43;3.95;;;2.80;;
8825;SDS011;4449;50.872;4.714;2022-08-21T02:51:12;2.63;;;2.40;;
8825;SDS011;4449;50.872;4.714;2022-08-21T02:53:40;2.88;;;2.55;;
8825;SDS011;4449;50.872;4.714;2022-08-21T02:56:09;4.05;;;2.80;;
8825;SDS011;4449;50.872;4.714;2022-08-21T02:58:38;4.05;;;2.67;;
8825;SDS011;4449;50.872;4.714;2022-08-21T03:01:07;2.88;;;2.58;;
8825;SDS011;4449;50.872;4.714;2022-08-21T03:03:35;6.43;;;2.60;;
8825;SDS011;4449;50.872;4.714;2022-08-21T03:06:05;4.67;;;2.60;;
8825;SDS011;4449;50.872;4.714;2022-08-21T03:08:33;2.83;;;2.13;;
8825;SDS011;4449;50.872;4.714;2022-08-21T03:11:01;3.45;;;2.78;;
8825;SDS011;4449;50.872;4.714;2022-08-21T03:13:29;4.30;;;2.60;;
8825;SDS011;4449;50.872;4.714;2022-08-21T03:15:57;3.30;;;2.50;;
8825;SDS011;4449;50.872;4.714;2022-08-21T03:18:25;3.90;;;2.65;;
8825;SDS011;4449;50.872;4.714;2022-08-21T03:20:52;4.88;;;2.63;;
8825;SDS011;4449;50.872;4.714;2022-08-21T03:23:21;3.67;;;2.70;;
8825;SDS011;4449;50.872;4.714;2022-08-21T03:25:49;3.40;;;2.85;;
8825;SDS011;4449;50.872;4.714;2022-08-21T03:28:19;2.70;;;2.42;;
8825;SDS011;4449;50.872;4.714;2022-08-21T03:30:48;5.18;;;3.00;;
8825;SDS011;4449;50.872;4.714;2022-08-21T03:33:16;4.68;;;2.45;;
8825;SDS011;4449;50.872;4.714;2022-08-21T03:35:45;5.13;;;2.43;;
8825;SDS011;4449;50.872;4.714;2022-08-21T03:38:14;4.20;;;2.67;;
8825;SDS011;4449;50.872;4.714;2022-08-21T03:40:43;5.75;;;2.35;;
8825;SDS011;4449;50.872;4.714;2022-08-21T03:43:11;3.95;;;2.65;;
8825;SDS011;4449;50.872;4.714;2022-08-21T03:45:39;3.17;;;2.70;;
8825;SDS011;4449;50.872;4.714;2022-08-21T03:48:07;3.38;;;2.58;;
8825;SDS011;4449;50.872;4.714;2022-08-21T03:50:37;4.47;;;2.40;;
8825;SDS011;4449;50.872;4.714;2022-08-21T03:53:05;3.65;;;2.60;;
8825;SDS011;4449;50.872;4.714;2022-08-21T03:55:33;4.47;;;2.60;;
8825;SDS011;4449;50.872;4.714;2022-08-21T03:58:02;4.60;;;2.50;;
8825;SDS011;4449;50.872;4.714;2022-08-21T04:00:30;2.60;;;2.40;;
8825;SDS011;4449;50.872;4.714;2022-08-21T04:02:58;2.90;;;2.60;;
8825;SDS011;4449;50.872;4.714;2022-08-21T04:05:26;4.75;;;2.80;;
8825;SDS011;4449;50.872;4.714;2022-08-21T04:07:54;3.63;;;2.38;;
8825;SDS011;4449;50.872;4.714;2022-08-21T04:10:23;5.30;;;2.80;;
8825;SDS011;4449;50.872;4.714;2022-08-21T04:12:51;4.50;;;2.50;;
8825;SDS011;4449;50.872;4.714;2022-08-21T04:15:21;2.83;;;2.63;;
8825;SDS011;4449;50.872;4.714;2022-08-21T04:17:49;3.58;;;2.40;;
8825;SDS011;4449;50.872;4.714;2022-08-21T04:20:16;3.78;;;2.95;;
8825;SDS011;4449;50.872;4.714;2022-08-21T04:22:44;4.03;;;2.63;;
8825;SDS011;4449;50.872;4.714;2022-08-21T04:25:13;3.35;;;2.50;;
8825;SDS011;4449;50.872;4.714;2022-08-21T04:27:41;3.20;;;2.43;;
8825;SDS011;4449;50.872;4.714;2022-08-21T04:30:09;3.13;;;2.35;;
8825;SDS011;4449;50.872;4.714;2022-08-21T04:32:41;2.60;;;2.40;;
8825;SDS011;4449;50.872;4.714;2022-08-21T04:35:09;3.22;;;2.67;;
8825;SDS011;4449;50.872;4.714;2022-08-21T04:37:38;4.43;;;2.53;;
8825;SDS011;4449;50.872;4.714;2022-08-21T04:40:06;3.33;;;2.47;;
8825;SDS011;4449;50.872;4.714;2022-08-21T04:42:40;3.60;;;2.70;;
8825;SDS011;4449;50.872;4.714;2022-08-21T04:45:08;5.60;;;2.60;;
8825;SDS011;4449;50.872;4.714;2022-08-21T04:47:36;3.85;;;2.70;;
8825;SDS011;4449;50.872;4.714;2022-08-21T04:50:06;6.18;;;2.65;;
8825;SDS011;4449;50.872;4.714;2022-08-21T04:52:34;3.60;;;2.53;;
8825;SDS011;4449;50.872;4.714;2022-08-21T04:55:04;8.27;;;2.83;;
8825;SDS011;4449;50.872;4.714;2022-08-21T04:57:33;2.60;;;2.38;;
8825;SDS011;4449;50.872;4.714;2022-08-21T05:00:02;3.08;;;2.20;;
8825;SDS011;4449;50.872;4.714;2022-08-21T05:02:30;4.38;;;2.35;;
8825;SDS011;4449;50.872;4.714;2022-08-21T05:04:59;2.70;;;2.35;;
8825;SDS011;4449;50.872;4.714;2022-08-21T05:07:28;4.33;;;2.27;;
8825;SDS011;4449;50.872;4.714;2022-08-21T05:09:57;3.85;;;2.40;;
8825;SDS011;4449;50.872;4.714;2022-08-21T05:12:26;5.75;;;2.53;;
8825;SDS011;4449;50.872;4.714;2022-08-21T05:14:54;3.42;;;2.50;;
8825;SDS011;4449;50.872;4.714;2022-08-21T05:17:21;2.75;;;2.30;;
8825;SDS011;4449;50.872;4.714;2022-08-21T05:19:49;2.40;;;2.17;;
8825;SDS011;4449;50.872;4.714;2022-08-21T05:22:21;2.50;;;2.10;;
8825;SDS011;4449;50.872;4.714;2022-08-21T05:24:51;3.38;;;2.33;;
8825;SDS011;4449;50.872;4.714;2022-08-21T05:27:18;5.60;;;2.55;;
8825;SDS011;4449;50.872;4.714;2022-08-21T05:29:46;2.57;;;2.20;;
8825;SDS011;4449;50.872;4.714;2022-08-21T05:32:14;3.35;;;2.15;;
8825;SDS011;4449;50.872;4.714;2022-08-21T05:34:42;2.72;;;2.10;;
8825;SDS011;4449;50.872;4.714;2022-08-21T05:37:10;2.33;;;2.08;;
8825;SDS011;4449;50.872;4.714;2022-08-21T05:39:38;3.38;;;2.40;;
8825;SDS011;4449;50.872;4.714;2022-08-21T05:42:08;3.37;;;1.93;;
8825;SDS011;4449;50.872;4.714;2022-08-21T05:44:36;4.15;;;2.50;;
8825;SDS011;4449;50.872;4.714;2022-08-21T05:47:04;3.50;;;2.20;;
8825;SDS011;4449;50.872;4.714;2022-08-21T05:49:32;3.03;;;2.00;;
8825;SDS011;4449;50.872;4.714;2022-08-21T05:52:00;3.63;;;2.25;;
8825;SDS011;4449;50.872;4.714;2022-08-21T05:54:27;4.78;;;2.20;;
8825;SDS011;4449;50.872;4.714;2022-08-21T05:56:55;2.17;;;1.90;;
8825;SDS011;4449;50.872;4.714;2022-08-21T05:59:25;3.15;;;2.20;;
8825;SDS011;4449;50.872;4.714;2022-08-21T06:01:53;2.05;;;1.95;;
8825;SDS011;4449;50.872;4.714;2022-08-21T06:04:20;1.90;;;1.80;;
8825;SDS011;4449;50.872;4.714;2022-08-21T06:06:48;3.38;;;2.40;;
8825;SDS011;4449;50.872;4.714;2022-08-21T06:09:16;4.07;;;1.95;;
8825;SDS011;4449;50.872;4.714;2022-08-21T06:11:44;3.60;;;2.30;;
8825;SDS011;4449;50.872;4.714;2022-08-21T06:14:13;4.47;;;2.67;;
8825;SDS011;4449;50.872;4.714;2022-08-21T06:16:43;3.80;;;2.10;;
8825;SDS011;4449;50.872;4.714;2022-08-21T06:19:11;2.60;;;2.28;;
8825;SDS011;4449;50.872;4.714;2022-08-21T06:21:39;5.50;;;2.50;;
8825;SDS011;4449;50.872;4.714;2022-08-21T06:24:06;3.00;;;2.10;;
8825;SDS011;4449;50.872;4.714;2022-08-21T06:26:34;6.73;;;2.27;;
8825;SDS011;4449;50.872;4.714;2022-08-21T06:29:02;4.50;;;2.50;;
8825;SDS011;4449;50.872;4.714;2022-08-21T06:31:31;5.88;;;2.10;;
8825;SDS011;4449;50.872;4.714;2022-08-21T06:34:00;4.00;;;2.30;;
8825;SDS011;4449;50.872;4.714;2022-08-21T06:36:28;4.10;;;1.90;;
8825;SDS011;4449;50.872;4.714;2022-08-21T06:38:55;3.00;;;2.13;;
8825;SDS011;4449;50.872;4.714;2022-08-21T06:41:23;5.73;;;1.93;;
8825;SDS011;4449;50.872;4.714;2022-08-21T06:43:51;5.25;;;2.00;;
8825;SDS011;4449;50.872;4.714;2022-08-21T06:46:19;2.80;;;1.88;;
8825;SDS011;4449;50.872;4.714;2022-08-21T06:48:47;5.32;;;2.30;;
8825;SDS011;4449;50.872;4.714;2022-08-21T06:51:16;6.10;;;2.47;;
8825;SDS011;4449;50.872;4.714;2022-08-21T06:53:44;3.78;;;2.08;;
8825;SDS011;4449;50.872;4.714;2022-08-21T06:56:12;7.15;;;2.28;;
8825;SDS011;4449;50.872;4.714;2022-08-21T06:58:40;4.90;;;1.75;;
8825;SDS011;4449;50.872;4.714;2022-08-21T07:01:08;6.13;;;2.13;;
8825;SDS011;4449;50.872;4.714;2022-08-21T07:03:36;3.70;;;1.92;;
8825;SDS011;4449;50.872;4.714;2022-08-21T07:06:05;4.22;;;2.25;;
8825;SDS011;4449;50.872;4.714;2022-08-21T07:08:35;3.45;;;1.90;;
8825;SDS011;4449;50.872;4.714;2022-08-21T07:11:03;4.00;;;2.30;;
8825;SDS011;4449;50.872;4.714;2022-08-21T07:13:32;2.45;;;1.92;;
8825;SDS011;4449;50.872;4.714;2022-08-21T07:15:59;5.85;;;2.10;;
8825;SDS011;4449;50.872;4.714;2022-08-21T07:18:27;3.60;;;2.00;;
8825;SDS011;4449;50.872;4.714;2022-08-21T07:20:55;3.45;;;2.15;;
8825;SDS011;4449;50.872;4.714;2022-08-21T07:23:24;6.43;;;2.00;;
8825;SDS011;4449;50.872;4.714;2022-08-21T07:25:55;4.93;;;1.90;;
8825;SDS011;4449;50.872;4.714;2022-08-21T07:28:24;4.70;;;1.97;;
8825;SDS011;4449;50.872;4.714;2022-08-21T07:30:53;5.25;;;2.00;;
8825;SDS011;4449;50.872;4.714;2022-08-21T07:33:21;5.13;;;2.03;;
8825;SDS011;4449;50.872;4.714;2022-08-21T07:35:48;3.83;;;2.20;;
8825;SDS011;4449;50.872;4.714;2022-08-21T07:38:16;3.92;;;2.00;;
8825;SDS011;4449;50.872;4.714;2022-08-21T07:40:44;6.65;;;2.40;;
8825;SDS011;4449;50.872;4.714;2022-08-21T07:43:13;4.22;;;1.75;;
8825;SDS011;4449;50.872;4.714;2022-08-21T07:45:42;3.97;;;1.95;;
8825;SDS011;4449;50.872;4.714;2022-08-21T07:48:10;4.13;;;1.77;;
8825;SDS011;4449;50.872;4.714;2022-08-21T07:50:38;5.18;;;2.20;;
8825;SDS011;4449;50.872;4.714;2022-08-21T07:53:06;4.40;;;1.77;;
8825;SDS011;4449;50.872;4.714;2022-08-21T07:55:34;3.73;;;1.93;;
8825;SDS011;4449;50.872;4.714;2022-08-21T07:58:02;2.90;;;2.05;;
8825;SDS011;4449;50.872;4.714;2022-08-21T08:00:31;3.95;;;1.83;;
8825;SDS011;4449;50.872;4.714;2022-08-21T08:03:00;3.10;;;2.03;;
8825;SDS011;4449;50.872;4.714;2022-08-21T08:05:29;4.60;;;1.90;;
8825;SDS011;4449;50.872;4.714;2022-08-21T08:07:57;4.15;;;2.00;;
8825;SDS011;4449;50.872;4.714;2022-08-21T08:10:25;5.23;;;1.73;;
8825;SDS011;4449;50.872;4.714;2022-08-21T08:12:53;5.45;;;1.85;;
8825;SDS011;4449;50.872;4.714;2022-08-21T08:15:22;4.28;;;1.80;;
8825;SDS011;4449;50.872;4.714;2022-08-21T08:17:51;4.15;;;1.95;;
8825;SDS011;4449;50.872;4.714;2022-08-21T08:20:20;2.88;;;1.85;;
8825;SDS011;4449;50.872;4.714;2022-08-21T08:22:48;4.03;;;1.60;;
8825;SDS011;4449;50.872;4.714;2022-08-21T08:25:17;4.32;;;1.73;;
8825;SDS011;4449;50.872;4.714;2022-08-21T08:27:45;4.50;;;1.70;;
8825;SDS011;4449;50.872;4.714;2022-08-21T08:30:13;3.95;;;1.70;;
8825;SDS011;4449;50.872;4.714;2022-08-21T08:32:42;3.50;;;1.50;;
8825;SDS011;4449;50.872;4.714;2022-08-21T08:35:11;6.37;;;1.73;;
8825;SDS011;4449;50.872;4.714;2022-08-21T08:37:39;4.33;;;1.97;;
8825;SDS011;4449;50.872;4.714;2022-08-21T08:40:10;2.33;;;1.60;;
8825;SDS011;4449;50.872;4.714;2022-08-21T08:42:38;3.85;;;1.67;;
8825;SDS011;4449;50.872;4.714;2022-08-21T08:45:07;3.72;;;1.50;;
8825;SDS011;4449;50.872;4.714;2022-08-21T08:47:36;2.95;;;1.60;;
8825;SDS011;4449;50.872;4.714;2022-08-21T08:50:05;3.25;;;1.50;;
8825;SDS011;4449;50.872;4.714;2022-08-21T08:52:36;5.85;;;1.80;;
8825;SDS011;4449;50.872;4.714;2022-08-21T08:55:04;2.80;;;1.67;;
8825;SDS011;4449;50.872;4.714;2022-08-21T08:57:34;3.55;;;1.85;;
8825;SDS011;4449;50.872;4.714;2022-08-21T09:00:04;3.03;;;1.77;;
8825;SDS011;4449;50.872;4.714;2022-08-21T09:02:33;5.72;;;1.63;;
8825;SDS011;4449;50.872;4.714;2022-08-21T09:05:00;4.07;;;2.17;;
8825;SDS011;4449;50.872;4.714;2022-08-21T09:07:31;4.15;;;1.73;;
8825;SDS011;4449;50.872;4.714;2022-08-21T09:10:10;3.00;;;1.65;;
8825;SDS011;4449;50.872;4.714;2022-08-21T09:12:41;4.03;;;1.90;;
8825;SDS011;4449;50.872;4.714;2022-08-21T09:15:12;5.22;;;1.50;;
8825;SDS011;4449;50.872;4.714;2022-08-21T09:17:49;4.47;;;1.92;;
8825;SDS011;4449;50.872;4.714;2022-08-21T09:20:20;4.30;;;1.67;;
8825;SDS011;4449;50.872;4.714;2022-08-21T09:22:55;3.95;;;1.80;;
8825;SDS011;4449;50.872;4.714;2022-08-21T09:25:28;5.72;;;2.03;;
8825;SDS011;4449;50.872;4.714;2022-08-21T09:27:58;3.87;;;1.60;;
8825;SDS011;4449;50.872;4.714;2022-08-21T09:30:27;4.38;;;1.75;;
8825;SDS011;4449;50.872;4.714;2022-08-21T09:32:56;4.80;;;1.92;;
8825;SDS011;4449;50.872;4.714;2022-08-21T09:35:24;2.50;;;1.65;;
8825;SDS011;4449;50.872;4.714;2022-08-21T09:37:54;3.73;;;1.70;;
8825;SDS011;4449;50.872;4.714;2022-08-21T09:40:29;2.67;;;1.30;;
8825;SDS011;4449;50.872;4.714;2022-08-21T09:42:59;3.65;;;1.60;;
8825;SDS011;4449;50.872;4.714;2022-08-21T09:45:27;2.77;;;1.77;;
8825;SDS011;4449;50.872;4.714;2022-08-21T09:47:55;4.97;;;2.00;;
8825;SDS011;4449;50.872;4.714;2022-08-21T09:50:25;4.80;;;2.10;;
8825;SDS011;4449;50.872;4.714;2022-08-21T09:52:54;2.90;;;1.63;;
8825;SDS011;4449;50.872;4.714;2022-08-21T09:55:30;3.50;;;1.63;;
8825;SDS011;4449;50.872;4.714;2022-08-21T09:58:15;6.27;;;1.70;;
8825;SDS011;4449;50.872;4.714;2022-08-21T10:00:44;3.85;;;1.85;;
8825;SDS011;4449;50.872;4.714;2022-08-21T10:03:13;3.63;;;1.52;;
8825;SDS011;4449;50.872;4.714;2022-08-21T10:05:50;4.03;;;1.83;;
8825;SDS011;4449;50.872;4.714;2022-08-21T10:08:18;2.80;;;2.08;;
8825;SDS011;4449;50.872;4.714;2022-08-21T10:10:51;2.67;;;1.77;;
8825;SDS011;4449;50.872;4.714;2022-08-21T10:13:20;3.15;;;1.50;;
8825;SDS011;4449;50.872;4.714;2022-08-21T10:15:51;4.18;;;1.70;;
8825;SDS011;4449;50.872;4.714;2022-08-21T10:18:24;4.13;;;1.73;;
8825;SDS011;4449;50.872;4.714;2022-08-21T10:20:54;2.33;;;1.48;;
8825;SDS011;4449;50.872;4.714;2022-08-21T10:23:29;2.33;;;1.60;;
8825;SDS011;4449;50.872;4.714;2022-08-21T10:26:02;3.92;;;1.55;;
8825;SDS011;4449;50.872;4.714;2022-08-21T10:28:32;3.47;;;1.75;;
8825;SDS011;4449;50.872;4.714;2022-08-21T10:31:07;4.22;;;1.98;;
8825;SDS011;4449;50.872;4.714;2022-08-21T10:33:39;5.28;;;1.80;;
8825;SDS011;4449;50.872;4.714;2022-08-21T10:36:12;5.55;;;1.85;;
8825;SDS011;4449;50.872;4.714;2022-08-21T10:38:47;3.80;;;2.08;;
8825;SDS011;4449;50.872;4.714;2022-08-21T10:41:20;2.05;;;1.58;;
8825;SDS011;4449;50.872;4.714;2022-08-21T10:43:55;4.63;;;1.83;;
8825;SDS011;4449;50.872;4.714;2022-08-21T10:46:31;8.15;;;1.90;;
8825;SDS011;4449;50.872;4.714;2022-08-21T10:49:04;6.55;;;2.35;;
8825;SDS011;4449;50.872;4.714;2022-08-21T11:51:30;3.50;;;1.95;;
8825;SDS011;4449;50.872;4.714;2022-08-21T11:54:03;5.88;;;2.03;;
8825;SDS011;4449;50.872;4.714;2022-08-21T11:56:34;4.95;;;2.03;;
8825;SDS011;4449;50.872;4.714;2022-08-21T11:59:05;5.75;;;2.42;;
8825;SDS011;4449;50.872;4.714;2022-08-21T12:01:36;2.33;;;1.83;;
8825;SDS011;4449;50.872;4.714;2022-08-21T12:04:06;3.40;;;2.03;;
8825;SDS011;4449;50.872;4.714;2022-08-21T12:06:37;5.80;;;1.90;;
8825;SDS011;4449;50.872;4.714;2022-08-21T12:09:05;5.60;;;1.92;;
8825;SDS011;4449;50.872;4.714;2022-08-21T12:11:45;5.90;;;2.10;;
8825;SDS011;4449;50.872;4.714;2022-08-21T12:14:13;4.28;;;2.30;;
8825;SDS011;4449;50.872;4.714;2022-08-21T12:16:42;3.72;;;2.15;;
8825;SDS011;4449;50.872;4.714;2022-08-21T12:19:12;3.65;;;1.98;;
8825;SDS011;4449;50.872;4.714;2022-08-21T12:21:50;4.60;;;2.00;;
8825;SDS011;4449;50.872;4.714;2022-08-21T12:24:20;4.55;;;1.90;;
8825;SDS011;4449;50.872;4.714;2022-08-21T12:26:59;5.35;;;2.00;;
8825;SDS011;4449;50.872;4.714;2022-08-21T12:29:27;10.33;;;2.50;;
8825;SDS011;4449;50.872;4.714;2022-08-21T12:31:58;5.13;;;1.75;;
8825;SDS011;4449;50.872;4.714;2022-08-21T12:34:30;4.53;;;2.40;;
8825;SDS011;4449;50.872;4.714;2022-08-21T12:37:02;2.90;;;2.00;;
8825;SDS011;4449;50.872;4.714;2022-08-21T12:39:31;6.45;;;2.53;;
8825;SDS011;4449;50.872;4.714;2022-08-21T12:42:00;5.55;;;1.83;;
8825;SDS011;4449;50.872;4.714;2022-08-21T12:44:33;6.63;;;2.27;;
8825;SDS011;4449;50.872;4.714;2022-08-21T12:47:03;7.40;;;2.00;;
8825;SDS011;4449;50.872;4.714;2022-08-21T12:49:33;3.47;;;1.80;;
8825;SDS011;4449;50.872;4.714;2022-08-21T12:52:05;5.37;;;2.33;;
8825;SDS011;4449;50.872;4.714;2022-08-21T12:54:37;3.97;;;2.00;;
8825;SDS011;4449;50.872;4.714;2022-08-21T12:57:06;5.07;;;1.73;;
8825;SDS011;4449;50.872;4.714;2022-08-21T12:59:36;3.58;;;2.30;;
8825;SDS011;4449;50.872;4.714;2022-08-21T13:02:09;3.97;;;1.98;;
8825;SDS011;4449;50.872;4.714;2022-08-21T13:04:39;2.78;;;1.80;;
8825;SDS011;4449;50.872;4.714;2022-08-21T13:07:09;3.95;;;1.65;;
8825;SDS011;4449;50.872;4.714;2022-08-21T13:09:39;2.55;;;1.77;;
8825;SDS011;4449;50.872;4.714;2022-08-21T13:12:08;3.15;;;1.90;;
8825;SDS011;4449;50.872;4.714;2022-08-21T13:14:37;5.00;;;1.90;;
8825;SDS011;4449;50.872;4.714;2022-08-21T13:17:05;5.57;;;1.90;;
8825;SDS011;4449;50.872;4.714;2022-08-21T13:19:33;4.82;;;1.70;;
8825;SDS011;4449;50.872;4.714;2022-08-21T13:22:02;3.97;;;1.92;;
8825;SDS011;4449;50.872;4.714;2022-08-21T13:24:33;7.15;;;4.25;;
8825;SDS011;4449;50.872;4.714;2022-08-21T13:27:01;4.15;;;1.83;;
8825;SDS011;4449;50.872;4.714;2022-08-21T13:29:31;4.13;;;1.67;;
8825;SDS011;4449;50.872;4.714;2022-08-21T13:32:00;4.50;;;2.17;;
8825;SDS011;4449;50.872;4.714;2022-08-21T13:34:29;3.75;;;1.70;;
8825;SDS011;4449;50.872;4.714;2022-08-21T13:36:58;5.90;;;2.20;;
8825;SDS011;4449;50.872;4.714;2022-08-21T13:39:27;4.95;;;2.10;;
8825;SDS011;4449;50.872;4.714;2022-08-21T13:41:57;4.73;;;2.23;;
8825;SDS011;4449;50.872;4.714;2022-08-21T13:44:31;5.78;;;2.03;;
8825;SDS011;4449;50.872;4.714;2022-08-21T13:47:00;3.63;;;1.80;;
8825;SDS011;4449;50.872;4.714;2022-08-21T13:49:30;3.42;;;1.73;;
8825;SDS011;4449;50.872;4.714;2022-08-21T13:51:59;4.30;;;1.83;;
8825;SDS011;4449;50.872;4.714;2022-08-21T13:54:28;5.07;;;2.00;;
8825;SDS011;4449;50.872;4.714;2022-08-21T13:56:58;2.92;;;1.83;;
8825;SDS011;4449;50.872;4.714;2022-08-21T13:59:27;3.88;;;2.10;;
8825;SDS011;4449;50.872;4.714;2022-08-21T14:01:55;3.25;;;1.73;;
8825;SDS011;4449;50.872;4.714;2022-08-21T14:04:26;2.70;;;1.77;;
8825;SDS011;4449;50.872;4.714;2022-08-21T14:06:54;3.53;;;2.57;;
8825;SDS011;4449;50.872;4.714;2022-08-21T14:09:23;4.78;;;1.98;;
8825;SDS011;4449;50.872;4.714;2022-08-21T14:11:53;4.25;;;2.33;;
8825;SDS011;4449;50.872;4.714;2022-08-21T14:14:23;5.53;;;1.83;;
8825;SDS011;4449;50.872;4.714;2022-08-21T14:16:55;8.02;;;2.00;;
8825;SDS011;4449;50.872;4.714;2022-08-21T14:19:24;4.32;;;1.73;;
8825;SDS011;4449;50.872;4.714;2022-08-21T14:21:52;5.28;;;1.95;;
8825;SDS011;4449;50.872;4.714;2022-08-21T14:24:27;3.70;;;1.88;;
8825;SDS011;4449;50.872;4.714;2022-08-21T14:26:56;3.45;;;2.00;;
8825;SDS011;4449;50.872;4.714;2022-08-21T14:29:26;6.88;;;1.92;;
8825;SDS011;4449;50.872;4.714;2022-08-21T14:31:55;3.85;;;1.98;;
8825;SDS011;4449;50.872;4.714;2022-08-21T14:34:24;4.03;;;2.13;;
8825;SDS011;4449;50.872;4.714;2022-08-21T14:36:52;3.50;;;2.10;;
8825;SDS011;4449;50.872;4.714;2022-08-21T14:39:20;3.17;;;1.77;;
8825;SDS011;4449;50.872;4.714;2022-08-21T14:41:48;4.00;;;1.80;;
8825;SDS011;4449;50.872;4.714;2022-08-21T14:44:16;4.47;;;1.80;;
8825;SDS011;4449;50.872;4.714;2022-08-21T14:46:46;7.40;;;2.13;;
8825;SDS011;4449;50.872;4.714;2022-08-21T14:49:14;3.55;;;2.03;;
8825;SDS011;4449;50.872;4.714;2022-08-21T14:51:42;5.07;;;2.05;;
8825;SDS011;4449;50.872;4.714;2022-08-21T14:54:10;2.83;;;2.05;;
8825;SDS011;4449;50.872;4.714;2022-08-21T14:56:37;4.45;;;1.70;;
8825;SDS011;4449;50.872;4.714;2022-08-21T14:59:06;3.03;;;2.03;;
8825;SDS011;4449;50.872;4.714;2022-08-21T15:01:34;3.03;;;1.92;;
8825;SDS011;4449;50.872;4.714;2022-08-21T15:04:04;2.92;;;1.75;;
8825;SDS011;4449;50.872;4.714;2022-08-21T15:06:32;5.63;;;2.08;;
8825;SDS011;4449;50.872;4.714;2022-08-21T15:08:59;1.83;;;1.70;;
8825;SDS011;4449;50.872;4.714;2022-08-21T15:11:29;2.83;;;1.80;;
8825;SDS011;4449;50.872;4.714;2022-08-21T15:13:57;4.85;;;2.28;;
8825;SDS011;4449;50.872;4.714;2022-08-21T15:16:27;6.18;;;2.30;;
8825;SDS011;4449;50.872;4.714;2022-08-21T15:18:55;2.97;;;2.00;;
8825;SDS011;4449;50.872;4.714;2022-08-21T15:21:24;3.67;;;2.00;;
8825;SDS011;4449;50.872;4.714;2022-08-21T15:23:52;6.17;;;3.10;;
8825;SDS011;4449;50.872;4.714;2022-08-21T15:26:20;3.85;;;2.63;;
8825;SDS011;4449;50.872;4.714;2022-08-21T15:28:49;6.55;;;2.25;;
8825;SDS011;4449;50.872;4.714;2022-08-21T15:31:17;5.90;;;1.88;;
8825;SDS011;4449;50.872;4.714;2022-08-21T15:33:44;4.38;;;1.92;;
8825;SDS011;4449;50.872;4.714;2022-08-21T15:36:12;4.65;;;2.05;;
8825;SDS011;4449;50.872;4.714;2022-08-21T15:38:41;5.45;;;2.20;;
8825;SDS011;4449;50.872;4.714;2022-08-21T15:41:09;7.97;;;4.78;;
8825;SDS011;4449;50.872;4.714;2022-08-21T15:43:38;4.22;;;2.05;;
8825;SDS011;4449;50.872;4.714;2022-08-21T15:46:08;5.00;;;2.28;;
8825;SDS011;4449;50.872;4.714;2022-08-21T15:48:37;4.75;;;2.05;;
8825;SDS011;4449;50.872;4.714;2022-08-21T15:51:05;3.23;;;2.50;;
8825;SDS011;4449;50.872;4.714;2022-08-21T15:53:33;5.20;;;2.22;;
8825;SDS011;4449;50.872;4.714;2022-08-21T15:56:05;3.55;;;1.92;;
8825;SDS011;4449;50.872;4.714;2022-08-21T15:58:33;5.32;;;3.00;;
8825;SDS011;4449;50.872;4.714;2022-08-21T16:01:01;5.50;;;2.28;;
8825;SDS011;4449;50.872;4.714;2022-08-21T16:03:28;5.72;;;2.53;;
8825;SDS011;4449;50.872;4.714;2022-08-21T16:05:56;3.38;;;2.20;;
8825;SDS011;4449;50.872;4.714;2022-08-21T16:08:24;6.10;;;2.50;;
8825;SDS011;4449;50.872;4.714;2022-08-21T16:10:52;3.78;;;2.28;;
8825;SDS011;4449;50.872;4.714;2022-08-21T16:13:23;5.20;;;2.00;;
8825;SDS011;4449;50.872;4.714;2022-08-21T16:15:52;5.38;;;2.45;;
8825;SDS011;4449;50.872;4.714;2022-08-21T16:18:22;5.82;;;2.08;;
8825;SDS011;4449;50.872;4.714;2022-08-21T16:20:51;3.33;;;2.03;;
8825;SDS011;4449;50.872;4.714;2022-08-21T16:23:18;4.32;;;1.80;;
8825;SDS011;4449;50.872;4.714;2022-08-21T16:25:46;2.67;;;1.85;;